Flight Track Log - Related Links

Times and Time Zones

All times are in EDT time to prevent confusion due to time zone crossing. See the DLH917 flight status page for this flight to view local times or setup timezone preferences in your user account.

Time Position Orientation Groundspeed Altitude Reporting Facility
EDT Latitude Longitude Course Direction KTS MPH feet Rate Location/Type
Wed 02:20:00 PM 51.4244 -0.0210 101° East  Level Estimated
Wed 02:21:00 PM 51.4064 0.1255 101° East  Level Estimated
Wed 02:22:00 PM 51.3881 0.2720 101° East  Level Estimated
Wed 02:23:00 PM 51.3697 0.4183 101° East  Level Estimated
Wed 02:24:00 PM 51.3511 0.5645 101° East  Level Estimated
Wed 02:25:00 PM 51.3323 0.7106 102° East  Level Estimated
Wed 02:26:00 PM 51.3134 0.8566 102° East  Level Estimated
Wed 02:27:00 PM 51.2942 1.0024 102° East  Level Estimated
Wed 02:28:00 PM 51.2749 1.1482 102° East  Level Estimated
Wed 02:29:00 PM 51.2554 1.2938 102° East  Level Estimated
Wed 02:30:00 PM 51.2357 1.4392 102° East  Level Estimated
Wed 02:31:00 PM 51.2158 1.5846 102° East  Level Estimated
Wed 02:32:00 PM 51.1958 1.7298 102° East  Level Estimated
Wed 02:33:00 PM 51.1755 1.8749 102° East  Level Estimated
Wed 02:34:00 PM 51.1551 2.0199 103° East  Level Estimated
Wed 02:35:00 PM 51.1345 2.1647 103° East  Level Estimated
Wed 02:36:00 PM 51.1138 2.3094 103° East  Level Estimated
Wed 02:37:00 PM 51.0928 2.4540 103° East  Level Estimated
Wed 02:38:00 PM 51.0717 2.5985 103° East  Level Estimated
Wed 02:39:00 PM 51.0504 2.7428 103° East  Level Estimated
Wed 02:40:00 PM 51.0289 2.8870 103° East  Level Estimated
Wed 02:41:00 PM 51.0073 3.0310 103° East  Level Estimated
Wed 02:42:00 PM 50.9855 3.1750 103° East  Level Estimated
Wed 02:43:00 PM 50.9635 3.3187 104° East  Level Estimated
Wed 02:44:00 PM 50.9413 3.4624 104° East  Level Estimated
Wed 02:45:00 PM 50.9189 3.6059 104° East  Level Estimated
Wed 02:46:00 PM 50.8964 3.7493 104° East  Level Estimated
Wed 02:47:00 PM 50.8737 3.8925 104° East  Level Estimated
Wed 02:48:00 PM 50.8508 4.0356 104° East  Level Estimated
Wed 02:49:00 PM 50.8277 4.1785 104° East  Level Estimated
Wed 02:50:00 PM 50.8045 4.3214 104° East  Level Estimated
Wed 02:51:00 PM 50.7811 4.4640 104° East  Level Estimated
Wed 02:52:00 PM 50.7575 4.6065 105° East  Level Estimated
Wed 02:53:00 PM 50.7337 4.7489 105° East  Level Estimated
Wed 02:54:00 PM 50.7098 4.8911 105° East  Level Estimated
Wed 02:55:00 PM 50.6857 5.0332 105° East  Level Estimated
Wed 02:56:00 PM 50.6614 5.1752 105° East  Level Estimated
Wed 02:57:00 PM 50.6370 5.3170 105° East  Level Estimated
Wed 02:58:00 PM 50.6123 5.4586 105° East  Level Estimated
Wed 02:59:00 PM 50.5811 5.6369 105° East  Level Estimated
Wed 03:00:00 PM 50.5495 5.8149 106° East  Level Estimated
Wed 03:01:00 PM 50.5177 5.9927 106° East  Level Estimated
Wed 03:02:00 PM 50.4856 6.1702 106° East  Level Estimated
Wed 03:03:00 PM 50.4533 6.3475 106° East  Level Estimated
Wed 03:04:00 PM 50.4207 6.5246 106° East  Level Estimated
Wed 03:05:00 PM 50.3878 6.7014 106° East  Level Estimated
Wed 03:06:00 PM 50.3546 6.8780 106° East  Level Estimated
Wed 03:07:00 PM 50.3212 7.0543 106° East  Level Estimated
Wed 03:08:00 PM 50.2875 7.2304 107° East  Level Estimated
Wed 03:09:00 PM 50.2536 7.4062 107° East  Level Estimated
Wed 03:10:00 PM 50.2194 7.5818 107° East  Level Estimated
Wed 03:11:00 PM 50.1849 7.7571 107° East  Level Estimated
Wed 03:12:00 PM 50.1501 7.9322 107° East  Level Estimated
Wed 03:13:00 PM 50.1151 8.1070 107° East  Level Estimated
Wed 03:14:00 PM 50.0799 8.2815 107° East  Level Estimated
Wed 03:15:00 PM 50.0443 8.4558 108° East  Level Estimated
Wed 03:16:00 PM 50.0264 8.5431 108° East  Level Estimated
Wed 03:17:00 PM 50.0264 8.5431 73° East  Level Estimated
Wed 03:18:00 PM 50.0264 8.5431 73° East  Level Estimated
Wed 03:19:00 PM 50.0264 8.5431 73° East  Level Estimated
Wed 03:20:00 PM 50.0264 8.5431 73° East  Level Estimated
Wed 03:21:00 PM 50.0264 8.5431 73° East  Level Estimated
Wed 03:22:00 PM 50.0264 8.5431 73° East  Level Estimated
Wed 03:23:00 PM 50.0264 8.5431 73° East  Level Estimated

Login

Don't have an account? Register now (free) for customized features, flight alerts, and more!